Time;durP1;ratioP1;P1;durP2;ratioP2;P2;SDS_P1;SDS_P2;PMS_P1;PMS_P2;Temp;Humidity;BMP_temperature;BMP_pressure;BME280_temperature;BME280_humidity;BME280_pressure;Samples;Min_cycle;Max_cycle;Signal;HPM_P1;HPM_P2
2023/01/27 00:00:58;;;;;;;8.75;6.88;;;;;;;19.62;43.82;100768.47;5055009;28;20049;-50
2023/01/27 00:03:25;;;;;;;13.13;6.13;;;;;;;19.61;43.91;100772.97;5054782;28;20060;-51
2023/01/27 00:05:53;;;;;;;9.65;7.32;;;;;;;19.61;43.96;100772.97;5054702;28;20053;-54
2023/01/27 00:08:20;;;;;;;8.20;7.07;;;;;;;19.61;43.76;100769.41;5055004;28;20045;-46
2023/01/27 00:13:25;;;;;;;10.30;7.72;;;;;;;19.58;43.77;100770.53;5054735;28;20047;-54
2023/01/27 00:13:35;;;;;;;9.30;7.20;;;;;;;19.58;43.74;100769.69;5054973;28;20045;-54
2023/01/27 00:16:02;;;;;;;9.98;7.18;;;;;;;19.57;43.80;100763.47;5054558;28;20091;-51
2023/01/27 00:18:30;;;;;;;9.70;6.72;;;;;;;19.57;43.63;100770.63;5054121;28;20052;-46
2023/01/27 00:26:28;;;;;;;8.23;6.75;;;;;;;19.54;43.87;100774.47;5054609;28;20053;-45
2023/01/27 00:28:56;;;;;;;11.57;7.68;;;;;;;19.51;43.62;100772.88;5054453;28;20041;-50
2023/01/27 00:34:09;;;;;;;10.25;7.13;;;;;;;19.51;43.81;100780.09;5054480;28;20052;-53
2023/01/27 00:36:40;;;;;;;11.25;7.30;;;;;;;19.52;43.79;100776.41;5054237;28;20053;-51
2023/01/27 00:39:09;;;;;;;11.23;7.38;;;;;;;19.50;43.45;100781.94;5054440;28;20375;-48
2023/01/27 00:41:39;;;;;;;9.65;6.80;;;;;;;19.49;43.55;100774.03;5053034;28;20055;-46
2023/01/27 00:44:12;;;;;;;8.75;7.30;;;;;;;19.49;43.61;100774.03;5052615;28;20048;-46
2023/01/27 00:46:41;;;;;;;9.23;7.18;;;;;;;19.49;43.60;100768.66;5052205;28;20049;-46
2023/01/27 00:49:12;;;;;;;10.30;6.82;;;;;;;19.47;43.57;100768.78;5052951;28;20045;-51
2023/01/27 00:51:39;;;;;;;9.95;6.90;;;;;;;19.47;43.54;100776.81;5054202;28;20056;-51
2023/01/27 00:54:07;;;;;;;8.07;6.90;;;;;;;19.47;43.85;100773.28;5053813;28;20049;-54
2023/01/27 00:56:35;;;;;;;9.75;7.45;;;;;;;19.47;43.46;100775.97;5053820;28;20049;-53
2023/01/27 00:59:03;;;;;;;9.75;7.22;;;;;;;19.46;43.47;100783.19;5054112;28;20379;-46
2023/01/27 01:01:32;;;;;;;9.70;6.57;;;;;;;19.46;43.47;100777.81;5052821;28;20053;-46
2023/01/27 01:04:00;;;;;;;11.23;7.28;;;;;;;19.46;43.59;100782.34;5053907;28;20055;-48
2023/01/27 01:06:28;;;;;;;9.35;6.47;;;;;;;19.45;43.50;100776.13;5052774;28;20055;-46
2023/01/27 01:08:56;;;;;;;10.77;6.90;;;;;;;19.45;43.66;100783.34;5053953;28;20372;-51
2023/01/27 01:11:24;;;;;;;9.27;7.10;;;;;;;19.44;43.48;100784.28;5053722;28;20053;-52
2023/01/27 01:13:52;;;;;;;9.25;7.10;;;;;;;19.44;43.49;100782.47;5053122;28;20060;-50
2023/01/27 01:16:24;;;;;;;9.93;7.03;;;;;;;19.43;43.61;100787.97;5052655;28;20391;-54
2023/01/27 01:18:51;;;;;;;8.55;6.95;;;;;;;19.43;43.53;100785.28;5052225;28;20044;-46
2023/01/27 01:21:20;;;;;;;9.18;7.05;;;;;;;19.41;43.44;100790.81;5053192;28;20060;-46
2023/01/27 01:23:47;;;;;;;7.95;6.40;;;;;;;19.41;43.69;100787.28;5053190;28;20475;-46
2023/01/27 01:26:16;;;;;;;8.68;7.18;;;;;;;19.41;43.57;100793.50;5053355;28;20048;-47
2023/01/27 01:28:44;;;;;;;8.70;6.53;;;;;;;19.41;43.60;100792.63;5052315;28;20061;-52
2023/01/27 01:31:16;;;;;;;8.13;6.05;;;;;;;19.40;43.48;100794.44;5052595;28;20072;-51
2023/01/27 01:33:44;;;;;;;9.10;6.93;;;;;;;19.40;43.49;100793.59;5051963;28;20483;-53
2023/01/27 01:36:14;;;;;;;9.27;7.15;;;;;;;19.39;43.72;100791.91;5052018;28;20061;-51
2023/01/27 01:38:42;;;;;;;10.70;7.07;;;;;;;19.38;43.63;100788.38;5053531;28;20060;-48
2023/01/27 01:41:27;;;;;;;8.02;7.20;;;;;;;19.38;43.74;100780.31;5052024;28;20053;-46
2023/01/27 01:43:55;;;;;;;7.65;6.20;;;;;;;19.38;43.64;100780.31;5053369;28;20045;-48
2023/01/27 01:46:22;;;;;;;8.88;6.70;;;;;;;19.36;43.64;100781.44;5053173;28;20399;-46
2023/01/27 01:48:52;;;;;;;9.30;7.38;;;;;;;19.36;43.69;100779.59;5052005;28;20055;-45
2023/01/27 01:51:58;;;;;;;7.30;6.47;;;;;;;19.36;43.67;100776.06;5052187;28;20503;-46
2023/01/27 01:54:50;;;;;;;9.05;7.13;;;;;;;19.35;43.70;100783.25;5051044;28;20060;-45
2023/01/27 01:57:26;;;;;;;7.78;6.43;;;;;;;19.34;43.57;100773.53;5051027;28;20065;-45
2023/01/27 02:00:06;;;;;;;8.65;7.03;;;;;;;19.34;43.56;100773.53;5034294;28;20092;-50
2023/01/27 02:02:40;;;;;;;9.27;6.85;;;;;;;19.34;43.80;100773.53;5054233;28;20140;-51
2023/01/27 02:05:12;;;;;;;8.10;6.45;;;;;;;19.35;43.88;100779.72;5050615;28;20515;-51
2023/01/27 02:07:48;;;;;;;8.30;6.37;;;;;;;19.33;43.65;100771.81;5050846;28;20053;-50
2023/01/27 02:10:15;;;;;;;7.63;6.03;;;;;;;19.33;43.82;100774.50;5051091;28;20065;-51
2023/01/27 02:12:44;;;;;;;8.43;6.38;;;;;;;19.32;43.78;100772.78;5050016;28;20052;-51
2023/01/27 02:15:12;;;;;;;9.38;6.60;;;;;;;19.32;43.88;100775.47;5050661;28;20056;-51
2023/01/27 02:17:40;;;;;;;9.57;6.18;;;;;;;19.32;43.89;100775.47;5033818;28;20053;-51
2023/01/27 02:20:33;;;;;;;7.43;6.55;;;;;;;19.31;43.89;100772.94;5051067;28;20045;-54
2023/01/27 02:23:03;;;;;;;10.07;5.93;;;;;;;19.31;43.90;100768.41;5050859;28;20057;-50
2023/01/27 02:25:33;;;;;;;7.57;6.10;;;;;;;19.30;43.89;100771.25;5050874;28;20049;-50
2023/01/27 02:28:25;;;;;;;8.23;6.18;;;;;;;19.30;43.80;100765.88;5051337;28;20057;-50
2023/01/27 02:30:54;;;;;;;9.40;6.05;;;;;;;19.30;43.67;100765.88;5052650;28;20060;-45
2023/01/27 02:33:22;;;;;;;8.82;6.05;;;;;;;19.29;43.77;100764.19;5052618;28;20045;-46
2023/01/27 02:36:02;;;;;;;9.57;6.28;;;;;;;19.28;43.58;100771.34;5051468;28;20395;-46
2023/01/27 02:38:34;;;;;;;7.53;5.88;;;;;;;19.27;43.64;100773.19;5052831;28;20479;-51
2023/01/27 02:41:25;;;;;;;8.70;6.47;;;;;;;19.28;43.66;100774.03;5052877;28;20466;-50
2023/01/27 02:43:53;;;;;;;7.43;5.78;;;;;;;19.29;43.64;100774.91;5054380;28;20049;-50
2023/01/27 02:46:21;;;;;;;7.45;6.07;;;;;;;19.28;43.44;100765.97;5055977;28;20048;-51
2023/01/27 02:48:48;;;;;;;6.25;5.55;;;;;;;19.27;43.61;100767.81;5055465;28;20045;-50
2023/01/27 02:51:16;;;;;;;9.13;6.20;;;;;;;19.26;43.56;100766.13;5055248;28;20057;-50
2023/01/27 02:53:45;;;;;;;7.35;5.75;;;;;;;19.25;43.54;100761.75;5055218;28;20053;-51
2023/01/27 02:56:12;;;;;;;6.95;5.78;;;;;;;19.26;43.51;100762.59;5055029;28;20061;-50
2023/01/27 02:58:41;;;;;;;7.50;5.90;;;;;;;19.26;43.63;100760.75;5055031;28;20049;-51
2023/01/27 03:01:18;;;;;;;7.28;5.78;;;;;;;19.26;43.40;100771.50;5055338;28;20499;-50
2023/01/27 03:03:50;;;;;;;7.72;6.43;;;;;;;19.25;43.53;100763.59;5056046;28;20050;-50
2023/01/27 03:06:19;;;;;;;6.75;5.40;;;;;;;19.25;43.40;100764.44;5054836;28;20049;-51
2023/01/27 03:08:47;;;;;;;7.40;5.85;;;;;;;19.25;43.46;100759.06;5054598;28;20049;-45
2023/01/27 03:12:18;;;;;;;7.70;5.57;;;;;;;19.24;43.34;100753.81;5055123;28;20053;-47
2023/01/27 03:14:04;;;;;;;7.18;5.57;;;;;;;19.24;43.39;100768.13;5054881;28;20124;-45
2023/01/27 03:19:17;;;;;;;7.05;5.32;;;;;;;19.23;43.51;100757.50;5054568;28;20065;-53
2023/01/27 03:21:49;;;;;;;7.05;5.78;;;;;;;19.23;43.61;100763.69;5055754;28;20045;-52
2023/01/27 03:24:18;;;;;;;7.22;6.03;;;;;;;19.23;43.58;100761.00;5054625;28;20061;-50
2023/01/27 03:26:46;;;;;;;7.68;5.63;;;;;;;19.22;43.59;100759.31;5054481;28;20056;-50
2023/01/27 03:32:02;;;;;;;6.63;5.35;;;;;;;19.21;43.69;100760.31;5054218;28;20425;-54
2023/01/27 03:34:31;;;;;;;7.13;5.22;;;;;;;19.23;43.51;100765.53;5054642;28;20071;-50
2023/01/27 03:48:21;;;;;;;7.93;5.53;;;;;;;19.20;43.70;100761.31;5055403;28;20045;-48
2023/01/27 03:50:54;;;;;;;6.50;5.05;;;;;;;19.20;43.58;100768.47;5055080;28;20045;-49
2023/01/27 03:53:22;;;;;;;8.65;5.10;;;;;;;19.20;43.72;100763.13;5053461;28;20072;-46
2023/01/27 03:55:49;;;;;;;7.22;5.32;;;;;;;19.19;43.65;100759.59;5054144;28;20041;-47
2023/01/27 03:58:36;;;;;;;6.50;5.40;;;;;;;19.18;43.70;100763.25;5054858;28;20491;-49
2023/01/27 04:01:07;;;;;;;7.72;5.10;;;;;;;19.19;43.47;100769.47;5053646;28;20418;-54
2023/01/27 04:09:18;;;;;;;6.80;5.10;;;;;;;19.18;43.52;100767.78;5054896;28;20041;-51
2023/01/27 04:11:54;;;;;;;8.23;5.28;;;;;;;19.17;43.58;100766.94;5054817;28;20045;-53
2023/01/27 04:14:24;;;;;;;6.10;4.95;;;;;;;19.17;43.48;100772.31;5054683;28;20052;-50
2023/01/27 04:16:54;;;;;;;6.05;4.68;;;;;;;19.16;43.32;100770.59;5053494;28;20040;-52
2023/01/27 04:19:22;;;;;;;8.23;5.32;;;;;;;19.17;43.42;100769.63;5054662;28;20058;-50
2023/01/27 04:21:49;;;;;;;6.50;4.53;;;;;;;19.18;43.40;100775.81;5054664;28;20056;-50
2023/01/27 04:24:21;;;;;;;7.00;5.47;;;;;;;19.17;43.42;100771.44;5054428;28;20108;-51
2023/01/27 04:26:54;;;;;;;6.30;4.90;;;;;;;19.16;43.28;100775.09;5054235;28;20053;-50
2023/01/27 04:29:24;;;;;;;7.10;4.97;;;;;;;19.15;43.50;100770.72;5053628;28;20049;-48
2023/01/27 04:31:52;;;;;;;7.43;5.60;;;;;;;19.16;43.13;100780.47;5054296;28;20402;-47
2023/01/27 04:34:20;;;;;;;5.60;4.63;;;;;;;19.15;43.08;100776.94;5054323;28;20059;-46
2023/01/27 04:36:47;;;;;;;6.88;4.93;;;;;;;19.15;43.28;100776.94;5054285;28;20056;-45
2023/01/27 04:39:15;;;;;;;6.70;4.72;;;;;;;19.14;43.20;100780.59;5054331;28;20056;-47
2023/01/27 04:41:44;;;;;;;5.38;4.32;;;;;;;19.14;43.11;100777.91;5054054;28;20044;-46
2023/01/27 04:44:12;;;;;;;6.70;4.95;;;;;;;19.15;43.21;100781.44;5054110;28;20052;-47
2023/01/27 04:46:39;;;;;;;9.35;5.13;;;;;;;19.14;43.20;100777.91;5054135;28;20071;-45
2023/01/27 04:49:07;;;;;;;7.05;4.90;;;;;;;19.13;43.26;100776.22;5054309;28;20044;-46
2023/01/27 04:51:34;;;;;;;7.60;5.85;;;;;;;19.13;43.17;100776.22;5054011;28;20049;-47
2023/01/27 04:54:05;;;;;;;6.72;4.70;;;;;;;19.12;43.04;100777.22;5053816;28;20045;-47
2023/01/27 04:56:53;;;;;;;6.13;4.88;;;;;;;19.13;43.06;100770.88;5054362;28;20045;-47
2023/01/27 04:59:21;;;;;;;6.57;4.50;;;;;;;19.12;43.16;100779.91;5054483;28;20053;-46
2023/01/27 05:01:49;;;;;;;7.00;5.25;;;;;;;19.13;43.18;100780.75;5053718;28;20056;-46
2023/01/27 05:04:16;;;;;;;6.57;4.68;;;;;;;19.12;43.15;100776.34;5053799;28;20049;-45
2023/01/27 05:06:43;;;;;;;8.85;5.10;;;;;;;19.12;43.17;100770.97;5053574;28;20072;-45
2023/01/27 05:09:11;;;;;;;6.63;4.43;;;;;;;19.10;43.25;100776.47;5053741;28;20049;-50
2023/01/27 05:11:38;;;;;;;6.85;4.45;;;;;;;19.11;43.21;100778.19;5053643;28;20052;-50
2023/01/27 05:14:05;;;;;;;6.15;4.35;;;;;;;19.11;43.27;100786.22;5052437;28;20064;-50
2023/01/27 05:16:33;;;;;;;6.07;4.95;;;;;;;19.11;43.21;100786.22;5053386;28;20040;-51
2023/01/27 05:19:00;;;;;;;5.72;4.55;;;;;;;19.10;43.20;100787.22;5053847;28;20052;-47
2023/01/27 05:21:29;;;;;;;6.13;4.43;;;;;;;19.10;43.09;100787.22;5054015;28;20053;-46
2023/01/27 05:23:57;;;;;;;6.30;4.68;;;;;;;19.08;43.11;100789.19;5052265;28;20048;-47
2023/01/27 05:26:26;;;;;;;6.30;4.70;;;;;;;19.08;43.36;100789.19;5053597;28;20045;-45
2023/01/27 05:28:56;;;;;;;6.70;4.70;;;;;;;19.08;43.15;100789.19;5053520;28;20045;-45
2023/01/27 05:31:26;;;;;;;5.82;4.72;;;;;;;19.09;43.21;100795.41;5053529;28;20068;-48
2023/01/27 05:33:55;;;;;;;5.55;4.28;;;;;;;19.08;43.10;100805.31;5053292;28;20052;-45
2023/01/27 05:36:24;;;;;;;6.32;4.82;;;;;;;19.08;43.15;100807.97;5053572;28;20045;-45
2023/01/27 05:38:52;;;;;;;6.72;4.55;;;;;;;19.07;43.02;100800.88;5053421;28;20063;-46
2023/01/27 05:41:21;;;;;;;5.80;4.57;;;;;;;19.07;43.04;100808.94;5068477;28;20049;-45
2023/01/27 05:43:53;;;;;;;6.90;5.15;;;;;;;19.07;43.11;100800.88;5052374;28;20605;-45
2023/01/27 05:46:22;;;;;;;6.00;4.45;;;;;;;19.07;43.00;100808.09;5052163;28;20045;-46
2023/01/27 05:48:52;;;;;;;6.10;4.90;;;;;;;19.07;42.99;100813.47;5068870;28;20056;-46
2023/01/27 05:51:22;;;;;;;6.32;4.72;;;;;;;19.06;43.11;100817.97;5053213;28;20052;-46
2023/01/27 05:53:49;;;;;;;6.40;4.65;;;;;;;19.05;43.07;100808.22;5053101;28;20052;-46
2023/01/27 05:56:18;;;;;;;7.25;3.92;;;;;;;19.05;43.02;100813.59;5053322;28;20055;-47
2023/01/27 05:58:46;;;;;;;5.50;4.40;;;;;;;19.06;43.04;100817.13;5053339;28;20049;-45
2023/01/27 06:01:18;;;;;;;6.57;4.03;;;;;;;19.06;43.00;100817.13;5053095;28;20048;-47
2023/01/27 06:03:46;;;;;;;6.97;4.18;;;;;;;19.07;42.76;100826.88;5052982;28;20052;-45
2023/01/27 06:06:16;;;;;;;5.88;4.10;;;;;;;19.05;42.99;100818.13;5052975;28;20060;-49
2023/01/27 06:08:44;;;;;;;5.85;4.00;;;;;;;19.05;43.03;100820.81;5052899;28;20529;-50
2023/01/27 06:11:12;;;;;;;5.38;4.50;;;;;;;19.04;42.97;100814.59;5052513;28;20041;-46
2023/01/27 06:13:39;;;;;;;5.47;3.90;;;;;;;19.03;42.93;100819.06;5052785;28;20056;-46
2023/01/27 06:16:10;;;;;;;5.90;4.43;;;;;;;19.04;42.85;100822.63;5052633;28;20051;-49
2023/01/27 06:18:38;;;;;;;7.32;4.40;;;;;;;19.03;42.73;100827.13;5054955;28;20060;-50
2023/01/27 06:21:08;;;;;;;6.63;4.40;;;;;;;19.03;42.95;100828.97;5056668;28;20049;-51
2023/01/27 06:23:36;;;;;;;5.88;4.18;;;;;;;19.02;42.88;100833.47;5057164;28;20045;-51
2023/01/27 06:26:14;;;;;;;6.20;4.72;;;;;;;19.03;43.00;100834.31;5056386;28;20052;-51
2023/01/27 06:28:42;;;;;;;5.55;4.32;;;;;;;19.02;42.91;100825.44;5056471;28;20044;-47
2023/01/27 06:31:12;;;;;;;4.97;4.03;;;;;;;19.03;43.08;100828.97;5056314;28;20052;-45
2023/01/27 06:33:41;;;;;;;5.32;4.07;;;;;;;19.02;42.83;100828.13;5056356;28;20049;-46
2023/01/27 06:36:12;;;;;;;4.63;3.83;;;;;;;19.02;43.06;100827.25;5055779;28;20057;-45
2023/01/27 06:38:40;;;;;;;5.95;4.35;;;;;;;19.02;42.93;100835.31;5056495;28;20052;-50
2023/01/27 06:41:07;;;;;;;6.13;4.68;;;;;;;19.01;42.80;100825.56;5056354;28;20041;-51
2023/01/27 06:43:37;;;;;;;4.85;3.83;;;;;;;19.02;42.85;100838.00;5056448;28;20049;-50
2023/01/27 06:46:04;;;;;;;4.97;3.88;;;;;;;19.02;42.69;100843.38;5056411;28;20060;-51
2023/01/27 06:48:33;;;;;;;5.75;4.22;;;;;;;19.01;42.71;100841.66;5056427;28;20053;-46
2023/01/27 06:51:00;;;;;;;5.88;4.57;;;;;;;19.00;42.69;100835.47;5056314;28;20044;-45
2023/01/27 06:53:28;;;;;;;5.50;4.15;;;;;;;18.99;42.72;100839.09;5056251;28;20051;-45
2023/01/27 06:55:57;;;;;;;6.55;4.63;;;;;;;19.00;42.80;100839.97;5056083;28;20487;-45
2023/01/27 06:58:25;;;;;;;5.25;3.85;;;;;;;18.99;42.49;100839.09;5056323;28;20056;-51
2023/01/27 07:00:53;;;;;;;8.35;4.50;;;;;;;18.99;42.55;100835.56;5056058;28;20037;-52
2023/01/27 07:03:21;;;;;;;5.15;3.78;;;;;;;18.98;42.71;100842.78;5055168;28;20060;-50
2023/01/27 07:05:49;;;;;;;6.00;4.32;;;;;;;18.99;42.75;100843.63;5055831;28;20487;-50
2023/01/27 07:08:16;;;;;;;5.43;4.47;;;;;;;18.98;42.58;100842.78;5056037;28;20045;-45
2023/01/27 07:10:43;;;;;;;4.85;3.63;;;;;;;18.98;42.64;100841.91;5055528;28;20060;-50
2023/01/27 07:13:12;;;;;;;5.00;3.72;;;;;;;18.98;42.46;100856.19;5055571;28;20403;-51
2023/01/27 07:15:40;;;;;;;4.85;4.20;;;;;;;18.98;42.50;100852.66;5055807;28;20514;-51
2023/01/27 07:18:10;;;;;;;5.47;4.47;;;;;;;18.98;42.40;100856.19;5055916;28;20045;-48
2023/01/27 07:20:39;;;;;;;5.05;3.92;;;;;;;18.98;42.43;100858.03;5038144;28;20530;-48
2023/01/27 07:23:06;;;;;;;6.68;4.32;;;;;;;18.98;42.58;100863.38;5055659;28;20053;-47
2023/01/27 07:25:34;;;;;;;5.25;4.10;;;;;;;18.98;42.54;100860.69;5055568;28;20072;-46
2023/01/27 07:28:02;;;;;;;6.15;3.70;;;;;;;18.98;42.68;100858.03;5055532;28;20053;-51
2023/01/27 07:30:32;;;;;;;5.60;3.72;;;;;;;18.97;42.76;100867.06;5055582;28;20061;-53
2023/01/27 07:33:18;;;;;;;5.63;3.78;;;;;;;18.97;42.77;100873.28;5055768;28;20053;-52
2023/01/27 07:35:48;;;;;;;5.10;3.58;;;;;;;18.96;42.74;100871.56;5055180;28;20049;-51
2023/01/27 07:38:16;;;;;;;5.90;3.65;;;;;;;18.97;42.94;100875.09;5055648;28;20049;-49
2023/01/27 07:40:43;;;;;;;6.85;4.18;;;;;;;18.96;43.20;100870.72;5055357;28;20049;-45
2023/01/27 07:43:10;;;;;;;6.45;3.83;;;;;;;18.97;43.04;100872.41;5055146;28;20422;-47
2023/01/27 07:45:39;;;;;;;7.43;4.13;;;;;;;18.96;42.94;100876.94;5054027;28;20060;-47
2023/01/27 07:48:11;;;;;;;6.00;4.25;;;;;;;18.95;42.81;100874.38;5055221;28;20045;-50
2023/01/27 07:50:40;;;;;;;6.63;4.10;;;;;;;18.96;42.76;100870.72;5055313;28;20044;-50
2023/01/27 07:53:09;;;;;;;5.15;3.53;;;;;;;18.95;42.78;100883.25;5055098;28;20045;-54
2023/01/27 07:55:36;;;;;;;5.47;3.75;;;;;;;18.95;42.73;100877.03;5055092;28;20052;-50
2023/01/27 07:58:04;;;;;;;7.13;3.85;;;;;;;18.95;42.76;100874.38;5055081;28;20049;-51
2023/01/27 08:00:34;;;;;;;5.18;3.70;;;;;;;18.96;42.83;100878.78;5054947;28;20410;-53
2023/01/27 08:03:05;;;;;;;4.90;3.63;;;;;;;18.96;42.62;100878.78;5053368;28;20048;-54
2023/01/27 08:05:33;;;;;;;7.35;4.10;;;;;;;18.95;42.47;100883.25;5055474;28;20056;-52
2023/01/27 08:08:03;;;;;;;7.13;4.70;;;;;;;18.95;42.60;100877.91;5054974;28;20055;-51
2023/01/27 08:10:30;;;;;;;5.40;3.88;;;;;;;18.95;42.37;100885.09;5054081;28;20056;-48
2023/01/27 08:12:58;;;;;;;5.40;3.92;;;;;;;18.96;42.65;100886.81;5054913;28;20049;-47
2023/01/27 08:15:25;;;;;;;4.78;3.78;;;;;;;18.94;42.44;100884.25;5053600;28;20047;-47
2023/01/27 08:17:57;;;;;;;6.72;3.67;;;;;;;18.95;42.66;100890.47;5054455;28;20049;-48
2023/01/27 08:20:27;;;;;;;7.07;3.95;;;;;;;18.95;42.57;100885.94;5053964;28;20045;-46
2023/01/27 08:22:55;;;;;;;7.30;4.25;;;;;;;18.95;42.56;100891.31;5053899;28;20049;-51
2023/01/27 08:25:26;;;;;;;7.47;4.05;;;;;;;18.94;42.56;100886.94;5054010;28;20044;-53
2023/01/27 08:27:55;;;;;;;6.82;4.32;;;;;;;18.95;42.60;100896.69;5054260;28;20052;-48
2023/01/27 08:30:23;;;;;;;6.97;3.90;;;;;;;18.96;42.76;100901.09;5054024;28;20514;-46
2023/01/27 08:32:51;;;;;;;6.00;3.83;;;;;;;18.97;42.41;100894.72;5053836;28;20464;-46
2023/01/27 08:35:18;;;;;;;5.82;4.05;;;;;;;18.99;41.43;100905.31;5053775;28;20052;-45
2023/01/27 08:37:47;;;;;;;4.90;3.58;;;;;;;19.00;42.20;100899.00;5053689;28;20048;-46
2023/01/27 08:40:16;;;;;;;7.60;4.18;;;;;;;19.02;42.19;100905.06;5052594;28;20036;-49
2023/01/27 08:42:43;;;;;;;4.90;3.65;;;;;;;19.03;41.67;100904.09;5053799;28;20387;-51
2023/01/27 08:45:10;;;;;;;5.63;3.55;;;;;;;19.05;42.16;100904.81;5054332;28;20387;-45
2023/01/27 08:47:38;;;;;;;5.18;3.70;;;;;;;19.05;41.49;100910.19;5054033;28;20464;-46
2023/01/27 08:50:05;;;;;;;5.43;3.80;;;;;;;19.08;41.87;100907.25;5054185;28;20368;-47
2023/01/27 08:52:33;;;;;;;5.13;3.85;;;;;;;19.08;41.66;100912.63;5053997;28;20045;-45
2023/01/27 08:55:00;;;;;;;6.03;3.50;;;;;;;19.10;41.35;100915.16;5053811;28;20064;-47
2023/01/27 08:57:31;;;;;;;5.85;4.15;;;;;;;19.11;41.12;100911.50;5053625;28;20041;-45
2023/01/27 08:59:58;;;;;;;5.80;3.65;;;;;;;19.10;40.55;100910.66;5053544;28;20051;-53
2023/01/27 09:02:26;;;;;;;7.75;4.10;;;;;;;19.11;40.29;100908.81;5053273;28;20041;-51
2023/01/27 09:04:53;;;;;;;6.90;3.95;;;;;;;19.13;40.94;100920.28;5036122;28;20045;-51
2023/01/27 09:07:20;;;;;;;6.45;3.60;;;;;;;19.12;41.08;100913.19;5053549;28;20044;-50
2023/01/27 09:09:48;;;;;;;5.93;4.15;;;;;;;19.11;40.22;100923.09;5053654;28;20045;-46
2023/01/27 09:12:18;;;;;;;4.47;3.28;;;;;;;19.13;39.81;100915.78;5053528;28;20044;-48
2023/01/27 09:14:46;;;;;;;5.18;3.80;;;;;;;19.13;39.20;100914.94;5053434;28;20049;-47
2023/01/27 09:17:18;;;;;;;7.40;4.63;;;;;;;19.11;38.17;100923.09;5053157;28;20048;-46
2023/01/27 09:19:46;;;;;;;6.40;4.03;;;;;;;19.10;38.03;100916.03;5052428;28;20052;-47
2023/01/27 09:22:13;;;;;;;6.15;4.38;;;;;;;19.09;36.67;100916.16;5051846;28;20056;-45
2023/01/27 09:24:40;;;;;;;7.60;4.60;;;;;;;19.06;36.16;100919.94;5051734;28;20049;-47
2023/01/27 09:27:07;;;;;;;6.18;3.90;;;;;;;19.05;36.72;100918.25;5053317;28;20044;-45
2023/01/27 09:29:35;;;;;;;7.03;4.35;;;;;;;19.05;36.39;100912.88;5051465;28;20041;-45
2023/01/27 09:32:03;;;;;;;6.05;4.38;;;;;;;19.04;36.52;100919.22;5052963;28;20482;-46
2023/01/27 09:34:30;;;;;;;5.90;4.25;;;;;;;19.05;36.33;100922.75;5052954;28;20057;-45
2023/01/27 09:37:04;;;;;;;7.40;4.53;;;;;;;19.06;36.07;100924.47;5053033;28;20391;-46
2023/01/27 09:39:36;;;;;;;4.78;3.42;;;;;;;19.04;36.04;100921.91;5053433;28;20491;-45
2023/01/27 09:42:32;;;;;;;6.57;4.57;;;;;;;19.04;35.93;100919.22;5052986;28;20499;-45
2023/01/27 09:45:16;;;;;;;6.07;3.95;;;;;;;19.04;35.60;100927.28;5053063;28;20045;-45
2023/01/27 09:47:58;;;;;;;5.45;4.07;;;;;;;19.03;34.79;100914.81;5052985;28;20514;-48
2023/01/27 09:51:11;;;;;;;5.13;3.97;;;;;;;18.99;34.71;100918.75;5053346;28;20049;-51
2023/01/27 09:54:00;;;;;;;4.75;3.60;;;;;;;18.97;34.68;100926.06;5056059;28;20120;-49
2023/01/27 09:56:51;;;;;;;5.10;3.58;;;;;;;18.96;34.66;100924.38;5057208;28;20052;-51
2023/01/27 09:59:24;;;;;;;5.63;3.33;;;;;;;18.96;35.10;100935.13;5057348;28;20057;-45
2023/01/27 10:02:45;;;;;;;6.38;3.78;;;;;;;18.97;36.89;100934.13;5057008;28;20382;-48
2023/01/27 10:05:21;;;;;;;5.20;3.42;;;;;;;18.99;37.44;100934.84;5014931;28;20054;-47
2023/01/27 10:07:57;;;;;;;5.50;3.92;;;;;;;19.00;36.86;100929.38;5014538;28;20073;-46
2023/01/27 10:10:39;;;;;;;6.00;3.30;;;;;;;19.02;36.82;100939.97;5014633;28;20058;-47
2023/01/27 10:13:27;;;;;;;4.65;3.20;;;;;;;19.02;37.23;100924.72;5014653;28;20481;-46
2023/01/27 10:16:08;;;;;;;4.40;3.15;;;;;;;19.02;36.98;100924.72;4998236;28;20057;-49
2023/01/27 10:18:41;;;;;;;6.15;3.60;;;;;;;19.02;37.05;100935.44;5014911;28;20054;-48
2023/01/27 10:21:18;;;;;;;6.07;3.58;;;;;;;19.02;37.06;100924.72;5014658;28;20050;-48
2023/01/27 10:24:15;;;;;;;4.72;3.17;;;;;;;19.02;37.98;100921.16;5014727;28;20781;-49
2023/01/27 10:26:50;;;;;;;6.97;3.60;;;;;;;19.03;37.80;100925.56;5014858;28;20065;-48
2023/01/27 10:29:25;;;;;;;5.78;3.60;;;;;;;19.03;37.78;100918.34;5014892;28;20058;-50
2023/01/27 10:32:06;;;;;;;6.93;3.80;;;;;;;19.03;37.10;100923.72;5014627;28;20052;-50
2023/01/27 10:34:40;;;;;;;5.78;3.47;;;;;;;19.03;37.38;100914.81;5014242;28;20054;-50
2023/01/27 10:37:41;;;;;;;6.43;3.47;;;;;;;19.03;37.95;100921.03;5014138;28;20058;-53
2023/01/27 10:40:30;;;;;;;6.28;3.45;;;;;;;19.03;37.90;100912.13;5049450;28;20057;-51
2023/01/27 10:43:00;;;;;;;6.00;3.40;;;;;;;19.03;38.00;100918.34;5056221;28;20045;-49
2023/01/27 10:45:44;;;;;;;3.90;3.08;;;;;;;19.02;37.93;100916.66;5055579;28;20049;-51
2023/01/27 10:48:33;;;;;;;5.45;3.17;;;;;;;19.02;37.80;100907.75;5056216;28;20111;-46
2023/01/27 10:51:09;;;;;;;4.97;3.33;;;;;;;19.01;37.70;100914.13;5054974;28;20048;-46
2023/01/27 10:53:48;;;;;;;5.00;3.45;;;;;;;19.01;37.98;100912.28;5056015;28;20068;-47
2023/01/27 10:56:24;;;;;;;5.40;3.55;;;;;;;19.01;38.28;100912.28;5055846;28;20040;-47
2023/01/27 10:59:00;;;;;;;5.35;3.30;;;;;;;19.01;38.43;100906.06;5056004;28;20056;-48
2023/01/27 11:01:39;;;;;;;4.50;3.38;;;;;;;19.02;38.59;100905.06;5055999;28;20049;-45
2023/01/27 11:04:16;;;;;;;4.50;3.00;;;;;;;19.02;38.37;100897.88;5054916;28;20471;-49
2023/01/27 11:06:46;;;;;;;5.10;3.50;;;;;;;19.00;36.64;100905.22;5055816;28;20391;-49
2023/01/27 11:09:32;;;;;;;5.05;3.22;;;;;;;18.95;37.89;100902.03;5055784;28;20052;-49
2023/01/27 11:12:04;;;;;;;7.60;3.00;;;;;;;18.96;38.35;100902.91;5054884;28;20048;-51
2023/01/27 11:14:52;;;;;;;6.95;3.22;;;;;;;18.96;38.32;100895.72;5055780;28;20052;-53
2023/01/27 11:17:35;;;;;;;4.57;2.90;;;;;;;18.96;37.51;100893.03;5055841;28;20398;-51
2023/01/27 11:20:12;;;;;;;5.75;3.42;;;;;;;18.97;37.27;100891.19;5055759;28;20055;-50
2023/01/27 11:22:42;;;;;;;4.97;2.67;;;;;;;18.98;37.98;100896.44;5055684;28;20056;-50
2023/01/27 11:25:38;;;;;;;5.75;2.92;;;;;;;18.98;38.55;100901.78;5055506;28;20120;-50
2023/01/27 11:28:23;;;;;;;6.90;3.00;;;;;;;18.98;39.25;100893.75;5054059;28;20056;-51
2023/01/27 11:31:25;;;;;;;6.57;3.25;;;;;;;18.99;39.55;100883.88;5055107;28;20060;-50
2023/01/27 11:34:02;;;;;;;4.95;3.13;;;;;;;19.00;39.37;100882.91;5055155;28;20392;-50
2023/01/27 11:36:30;;;;;;;5.05;3.20;;;;;;;19.00;39.56;100872.19;5055411;28;20364;-50
2023/01/27 11:38:57;;;;;;;4.68;3.15;;;;;;;18.99;38.94;100876.66;5055613;28;20048;-50
2023/01/27 11:41:25;;;;;;;5.25;2.88;;;;;;;19.00;38.97;100866.81;5055246;28;20064;-49
2023/01/27 11:43:52;;;;;;;7.60;3.10;;;;;;;19.00;38.86;100864.13;5055130;28;20372;-53
2023/01/27 11:46:23;;;;;;;4.70;2.90;;;;;;;19.00;39.06;100864.13;5055504;28;20068;-55
2023/01/27 11:48:56;;;;;;;5.60;2.65;;;;;;;18.99;38.49;100855.19;5054547;28;20052;-49
2023/01/27 11:51:27;;;;;;;4.60;3.00;;;;;;;19.00;38.97;100861.44;5055103;28;20040;-47
2023/01/27 11:54:24;;;;;;;5.82;3.17;;;;;;;19.00;40.06;100854.25;5054836;28;20463;-50
2023/01/27 11:56:51;;;;;;;9.70;5.43;;;;;;;19.00;39.47;100851.56;5053720;28;20057;-47
2023/01/27 11:59:30;;;;;;;15.88;7.25;;;;;;;19.01;39.74;100855.09;5055179;28;20412;-48
2023/01/27 12:02:02;;;;;;;12.57;6.55;;;;;;;19.03;40.84;100853.09;5054884;28;20053;-47
2023/01/27 12:04:51;;;;;;;22.38;11.63;;;;;;;19.05;42.64;100853.84;5054705;28;20044;-48
2023/01/27 12:07:43;;;;;;;10.00;5.60;;;;;;;19.03;39.26;100837.84;5054650;28;20048;-49
2023/01/27 12:10:28;;;;;;;10.95;6.10;;;;;;;19.05;40.04;100837.75;5054954;28;20052;-51
2023/01/27 12:12:57;;;;;;;14.77;8.05;;;;;;;19.05;41.61;100834.22;5055120;28;20625;-52
2023/01/27 12:15:28;;;;;;;14.30;8.70;;;;;;;19.05;42.70;100837.75;5053658;28;20049;-52
2023/01/27 12:18:00;;;;;;;16.92;8.70;;;;;;;19.04;42.43;100830.69;5054353;28;20052;-53